sensor_id;sensor_type;location;lat;lon;timestamp;temperature;humidity
59007;DHT22;44792;52.760;6.726;2023-05-07T00:00:03;14.30;99.90
59007;DHT22;44792;52.760;6.726;2023-05-07T00:02:32;14.30;99.90
59007;DHT22;44792;52.760;6.726;2023-05-07T00:04:58;14.20;99.90
59007;DHT22;44792;52.760;6.726;2023-05-07T00:07:24;14.20;99.90
59007;DHT22;44792;52.760;6.726;2023-05-07T00:09:50;14.20;99.90
59007;DHT22;44792;52.760;6.726;2023-05-07T00:12:15;14.20;99.90
59007;DHT22;44792;52.760;6.726;2023-05-07T00:14:41;14.10;99.90
59007;DHT22;44792;52.760;6.726;2023-05-07T00:17:07;14.10;99.90
59007;DHT22;44792;52.760;6.726;2023-05-07T00:19:33;14.10;99.90
59007;DHT22;44792;52.760;6.726;2023-05-07T00:21:58;14.10;99.90
59007;DHT22;44792;52.760;6.726;2023-05-07T00:24:24;14.10;99.90
59007;DHT22;44792;52.760;6.726;2023-05-07T00:26:50;14.10;99.90
59007;DHT22;44792;52.760;6.726;2023-05-07T00:29:15;14.10;99.90
59007;DHT22;44792;52.760;6.726;2023-05-07T00:31:41;14.00;99.90
59007;DHT22;44792;52.760;6.726;2023-05-07T00:34:07;14.00;99.90
59007;DHT22;44792;52.760;6.726;2023-05-07T00:36:33;14.00;99.90
59007;DHT22;44792;52.760;6.726;2023-05-07T00:39:02;14.00;99.90
59007;DHT22;44792;52.760;6.726;2023-05-07T00:41:29;13.90;99.90
59007;DHT22;44792;52.760;6.726;2023-05-07T00:43:56;13.90;99.90
59007;DHT22;44792;52.760;6.726;2023-05-07T00:46:22;14.00;99.90
59007;DHT22;44792;52.760;6.726;2023-05-07T00:48:50;13.90;99.90
59007;DHT22;44792;52.760;6.726;2023-05-07T00:51:17;13.90;99.90
59007;DHT22;44792;52.760;6.726;2023-05-07T00:53:43;13.80;99.90
59007;DHT22;44792;52.760;6.726;2023-05-07T00:56:09;13.80;99.90
59007;DHT22;44792;52.760;6.726;2023-05-07T00:58:35;13.80;99.90
59007;DHT22;44792;52.760;6.726;2023-05-07T01:01:02;13.70;99.90
59007;DHT22;44792;52.760;6.726;2023-05-07T01:03:27;13.60;99.90
59007;DHT22;44792;52.760;6.726;2023-05-07T01:05:55;13.60;99.90
59007;DHT22;44792;52.760;6.726;2023-05-07T01:08:23;13.50;99.90
59007;DHT22;44792;52.760;6.726;2023-05-07T01:10:50;13.40;99.90
59007;DHT22;44792;52.760;6.726;2023-05-07T01:13:17;13.40;99.90
59007;DHT22;44792;52.760;6.726;2023-05-07T01:15:43;13.40;99.90
59007;DHT22;44792;52.760;6.726;2023-05-07T01:18:10;13.40;99.90
59007;DHT22;44792;52.760;6.726;2023-05-07T01:20:36;13.40;99.90
59007;DHT22;44792;52.760;6.726;2023-05-07T01:23:03;13.40;99.90
59007;DHT22;44792;52.760;6.726;2023-05-07T01:25:29;13.30;99.90
59007;DHT22;44792;52.760;6.726;2023-05-07T01:27:56;13.20;99.90
59007;DHT22;44792;52.760;6.726;2023-05-07T01:30:22;13.30;99.90
59007;DHT22;44792;52.760;6.726;2023-05-07T01:32:53;13.20;99.90
59007;DHT22;44792;52.760;6.726;2023-05-07T01:35:26;13.10;99.90
59007;DHT22;44792;52.760;6.726;2023-05-07T01:37:53;13.10;99.90
59007;DHT22;44792;52.760;6.726;2023-05-07T01:40:19;13.00;99.90
59007;DHT22;44792;52.760;6.726;2023-05-07T01:42:46;13.00;99.90
59007;DHT22;44792;52.760;6.726;2023-05-07T01:45:11;13.00;99.90
59007;DHT22;44792;52.760;6.726;2023-05-07T01:47:37;12.90;99.90
59007;DHT22;44792;52.760;6.726;2023-05-07T01:50:05;13.00;99.90
59007;DHT22;44792;52.760;6.726;2023-05-07T01:52:34;13.00;99.90
59007;DHT22;44792;52.760;6.726;2023-05-07T01:55:00;12.90;99.90
59007;DHT22;44792;52.760;6.726;2023-05-07T01:57:26;12.90;99.90
59007;DHT22;44792;52.760;6.726;2023-05-07T01:59:51;12.90;99.90
59007;DHT22;44792;52.760;6.726;2023-05-07T02:02:17;12.90;99.90
59007;DHT22;44792;52.760;6.726;2023-05-07T02:04:43;12.80;99.90
59007;DHT22;44792;52.760;6.726;2023-05-07T02:07:08;12.80;99.90
59007;DHT22;44792;52.760;6.726;2023-05-07T02:09:34;12.80;99.90
59007;DHT22;44792;52.760;6.726;2023-05-07T02:12:00;12.70;99.90
59007;DHT22;44792;52.760;6.726;2023-05-07T02:14:25;12.60;99.90
59007;DHT22;44792;52.760;6.726;2023-05-07T02:16:51;12.60;99.90
59007;DHT22;44792;52.760;6.726;2023-05-07T02:19:17;12.50;99.90
59007;DHT22;44792;52.760;6.726;2023-05-07T02:21:43;12.50;99.90
59007;DHT22;44792;52.760;6.726;2023-05-07T02:24:09;12.40;99.90
59007;DHT22;44792;52.760;6.726;2023-05-07T02:26:35;12.40;99.90
59007;DHT22;44792;52.760;6.726;2023-05-07T02:29:00;12.40;99.90
59007;DHT22;44792;52.760;6.726;2023-05-07T02:31:26;12.50;99.90
59007;DHT22;44792;52.760;6.726;2023-05-07T02:33:51;12.40;99.90
59007;DHT22;44792;52.760;6.726;2023-05-07T02:36:17;12.40;99.90
59007;DHT22;44792;52.760;6.726;2023-05-07T02:38:43;12.40;99.90
59007;DHT22;44792;52.760;6.726;2023-05-07T02:41:10;12.30;99.90
59007;DHT22;44792;52.760;6.726;2023-05-07T02:43:36;12.30;99.90
59007;DHT22;44792;52.760;6.726;2023-05-07T02:46:06;12.30;99.90
59007;DHT22;44792;52.760;6.726;2023-05-07T02:48:33;12.30;99.90
59007;DHT22;44792;52.760;6.726;2023-05-07T02:50:59;12.30;99.90
59007;DHT22;44792;52.760;6.726;2023-05-07T02:53:25;12.40;99.90
59007;DHT22;44792;52.760;6.726;2023-05-07T02:56:01;12.30;99.90
59007;DHT22;44792;52.760;6.726;2023-05-07T02:58:27;12.30;99.90
59007;DHT22;44792;52.760;6.726;2023-05-07T03:00:53;12.30;99.90
59007;DHT22;44792;52.760;6.726;2023-05-07T03:03:20;12.30;99.90
59007;DHT22;44792;52.760;6.726;2023-05-07T03:05:46;12.10;99.90
59007;DHT22;44792;52.760;6.726;2023-05-07T03:08:12;12.20;99.90
59007;DHT22;44792;52.760;6.726;2023-05-07T03:10:38;12.20;99.90
59007;DHT22;44792;52.760;6.726;2023-05-07T03:13:04;12.10;99.90
59007;DHT22;44792;52.760;6.726;2023-05-07T03:15:30;12.10;99.90
59007;DHT22;44792;52.760;6.726;2023-05-07T03:17:56;12.10;99.90
59007;DHT22;44792;52.760;6.726;2023-05-07T03:20:21;12.10;99.90
59007;DHT22;44792;52.760;6.726;2023-05-07T03:22:47;12.10;99.90
59007;DHT22;44792;52.760;6.726;2023-05-07T03:25:13;12.10;99.90
59007;DHT22;44792;52.760;6.726;2023-05-07T03:27:40;12.10;99.90
59007;DHT22;44792;52.760;6.726;2023-05-07T03:30:08;12.10;99.90
59007;DHT22;44792;52.760;6.726;2023-05-07T03:32:34;12.10;99.90
59007;DHT22;44792;52.760;6.726;2023-05-07T03:35:01;12.00;99.90
59007;DHT22;44792;52.760;6.726;2023-05-07T03:37:26;12.00;99.90
59007;DHT22;44792;52.760;6.726;2023-05-07T03:39:52;12.00;99.90
59007;DHT22;44792;52.760;6.726;2023-05-07T03:42:18;12.00;99.90
59007;DHT22;44792;52.760;6.726;2023-05-07T03:44:43;11.90;99.90
59007;DHT22;44792;52.760;6.726;2023-05-07T03:47:09;12.00;99.90
59007;DHT22;44792;52.760;6.726;2023-05-07T03:49:36;11.90;99.90
59007;DHT22;44792;52.760;6.726;2023-05-07T03:52:02;11.90;99.90
59007;DHT22;44792;52.760;6.726;2023-05-07T03:54:28;12.00;99.90
59007;DHT22;44792;52.760;6.726;2023-05-07T03:56:53;11.90;99.90
59007;DHT22;44792;52.760;6.726;2023-05-07T03:59:19;12.00;99.90
59007;DHT22;44792;52.760;6.726;2023-05-07T04:01:45;12.00;99.90
59007;DHT22;44792;52.760;6.726;2023-05-07T04:04:10;12.00;99.90
59007;DHT22;44792;52.760;6.726;2023-05-07T04:06:36;11.90;99.90
59007;DHT22;44792;52.760;6.726;2023-05-07T04:09:02;11.90;99.90
59007;DHT22;44792;52.760;6.726;2023-05-07T04:11:28;11.90;99.90
59007;DHT22;44792;52.760;6.726;2023-05-07T04:13:54;11.90;99.90
59007;DHT22;44792;52.760;6.726;2023-05-07T04:16:20;11.90;99.90
59007;DHT22;44792;52.760;6.726;2023-05-07T04:18:45;12.00;99.90
59007;DHT22;44792;52.760;6.726;2023-05-07T04:21:21;11.90;99.90
59007;DHT22;44792;52.760;6.726;2023-05-07T04:23:47;12.00;99.90
59007;DHT22;44792;52.760;6.726;2023-05-07T04:26:14;11.90;99.90
59007;DHT22;44792;52.760;6.726;2023-05-07T04:28:40;11.80;99.90
59007;DHT22;44792;52.760;6.726;2023-05-07T04:31:06;11.90;99.90
59007;DHT22;44792;52.760;6.726;2023-05-07T04:33:32;11.90;99.90
59007;DHT22;44792;52.760;6.726;2023-05-07T04:36:02;11.80;99.90
59007;DHT22;44792;52.760;6.726;2023-05-07T04:38:31;11.90;99.90
59007;DHT22;44792;52.760;6.726;2023-05-07T04:41:02;11.80;99.90
59007;DHT22;44792;52.760;6.726;2023-05-07T04:43:28;11.90;99.90
59007;DHT22;44792;52.760;6.726;2023-05-07T04:45:54;11.90;99.90
59007;DHT22;44792;52.760;6.726;2023-05-07T04:48:20;11.90;99.90
59007;DHT22;44792;52.760;6.726;2023-05-07T04:50:49;12.00;99.90
59007;DHT22;44792;52.760;6.726;2023-05-07T04:53:16;11.90;99.90
59007;DHT22;44792;52.760;6.726;2023-05-07T04:55:42;11.90;99.90
59007;DHT22;44792;52.760;6.726;2023-05-07T04:58:08;11.90;99.90
59007;DHT22;44792;52.760;6.726;2023-05-07T05:00:34;11.90;99.90
59007;DHT22;44792;52.760;6.726;2023-05-07T05:03:00;11.90;99.90
59007;DHT22;44792;52.760;6.726;2023-05-07T05:05:25;12.00;99.90
59007;DHT22;44792;52.760;6.726;2023-05-07T05:07:51;11.90;99.90
59007;DHT22;44792;52.760;6.726;2023-05-07T05:10:17;11.90;99.90
59007;DHT22;44792;52.760;6.726;2023-05-07T05:12:43;11.90;99.90
59007;DHT22;44792;52.760;6.726;2023-05-07T05:15:11;11.90;99.90
59007;DHT22;44792;52.760;6.726;2023-05-07T05:17:37;12.00;99.90
59007;DHT22;44792;52.760;6.726;2023-05-07T05:20:03;12.00;99.90
59007;DHT22;44792;52.760;6.726;2023-05-07T05:22:29;11.90;99.90
59007;DHT22;44792;52.760;6.726;2023-05-07T05:24:57;11.90;99.90
59007;DHT22;44792;52.760;6.726;2023-05-07T05:27:22;12.00;99.90
59007;DHT22;44792;52.760;6.726;2023-05-07T05:29:48;11.90;99.90
59007;DHT22;44792;52.760;6.726;2023-05-07T05:32:14;12.00;99.90
59007;DHT22;44792;52.760;6.726;2023-05-07T05:34:40;11.90;99.90
59007;DHT22;44792;52.760;6.726;2023-05-07T05:37:05;11.90;99.90
59007;DHT22;44792;52.760;6.726;2023-05-07T05:39:31;11.90;99.90
59007;DHT22;44792;52.760;6.726;2023-05-07T05:41:57;11.90;99.90
59007;DHT22;44792;52.760;6.726;2023-05-07T05:44:22;12.00;99.90
59007;DHT22;44792;52.760;6.726;2023-05-07T05:46:48;12.00;99.90
59007;DHT22;44792;52.760;6.726;2023-05-07T05:49:15;12.10;99.90
59007;DHT22;44792;52.760;6.726;2023-05-07T05:51:41;12.00;99.90
59007;DHT22;44792;52.760;6.726;2023-05-07T05:54:07;12.00;99.90
59007;DHT22;44792;52.760;6.726;2023-05-07T05:56:33;12.00;99.90
59007;DHT22;44792;52.760;6.726;2023-05-07T05:58:58;12.00;99.90
59007;DHT22;44792;52.760;6.726;2023-05-07T06:01:25;12.10;99.90
59007;DHT22;44792;52.760;6.726;2023-05-07T06:03:50;12.10;99.90
59007;DHT22;44792;52.760;6.726;2023-05-07T06:06:16;12.10;99.90
59007;DHT22;44792;52.760;6.726;2023-05-07T06:08:42;12.10;99.90
59007;DHT22;44792;52.760;6.726;2023-05-07T06:11:08;12.20;99.90
59007;DHT22;44792;52.760;6.726;2023-05-07T06:13:33;12.20;99.90
59007;DHT22;44792;52.760;6.726;2023-05-07T06:15:59;12.20;99.90
59007;DHT22;44792;52.760;6.726;2023-05-07T06:18:25;12.20;99.90
59007;DHT22;44792;52.760;6.726;2023-05-07T06:20:51;12.20;99.90
59007;DHT22;44792;52.760;6.726;2023-05-07T06:23:17;12.20;99.90
59007;DHT22;44792;52.760;6.726;2023-05-07T06:25:49;12.20;99.90
59007;DHT22;44792;52.760;6.726;2023-05-07T06:28:15;12.20;99.90
59007;DHT22;44792;52.760;6.726;2023-05-07T06:30:41;12.30;99.90
59007;DHT22;44792;52.760;6.726;2023-05-07T06:33:07;12.30;99.90
59007;DHT22;44792;52.760;6.726;2023-05-07T06:35:33;12.30;99.90
59007;DHT22;44792;52.760;6.726;2023-05-07T06:37:59;12.20;99.90
59007;DHT22;44792;52.760;6.726;2023-05-07T06:40:25;12.20;99.90
59007;DHT22;44792;52.760;6.726;2023-05-07T06:42:50;12.30;99.90
59007;DHT22;44792;52.760;6.726;2023-05-07T06:45:16;12.20;99.90
59007;DHT22;44792;52.760;6.726;2023-05-07T06:47:42;12.20;99.90
59007;DHT22;44792;52.760;6.726;2023-05-07T06:50:08;12.30;99.90
59007;DHT22;44792;52.760;6.726;2023-05-07T06:52:35;12.30;99.90
59007;DHT22;44792;52.760;6.726;2023-05-07T06:55:01;12.40;99.90
59007;DHT22;44792;52.760;6.726;2023-05-07T06:57:26;12.40;99.90
59007;DHT22;44792;52.760;6.726;2023-05-07T06:59:52;12.40;99.90
59007;DHT22;44792;52.760;6.726;2023-05-07T07:02:18;12.40;99.90
59007;DHT22;44792;52.760;6.726;2023-05-07T07:04:44;12.40;99.90
59007;DHT22;44792;52.760;6.726;2023-05-07T07:07:10;12.50;99.90
59007;DHT22;44792;52.760;6.726;2023-05-07T07:09:36;12.40;99.90
59007;DHT22;44792;52.760;6.726;2023-05-07T07:12:01;12.40;99.90
59007;DHT22;44792;52.760;6.726;2023-05-07T07:14:27;12.50;99.90
59007;DHT22;44792;52.760;6.726;2023-05-07T07:16:53;12.50;99.90
59007;DHT22;44792;52.760;6.726;2023-05-07T07:19:19;12.60;99.90
59007;DHT22;44792;52.760;6.726;2023-05-07T07:21:45;12.60;99.90
59007;DHT22;44792;52.760;6.726;2023-05-07T07:24:12;12.60;99.90
59007;DHT22;44792;52.760;6.726;2023-05-07T07:26:38;12.60;99.90
59007;DHT22;44792;52.760;6.726;2023-05-07T07:29:05;12.70;99.90
59007;DHT22;44792;52.760;6.726;2023-05-07T07:31:32;12.80;99.90
59007;DHT22;44792;52.760;6.726;2023-05-07T07:33:58;12.70;99.90
59007;DHT22;44792;52.760;6.726;2023-05-07T07:36:23;12.70;99.90
59007;DHT22;44792;52.760;6.726;2023-05-07T07:38:49;12.80;99.90
59007;DHT22;44792;52.760;6.726;2023-05-07T07:41:15;12.90;99.90
59007;DHT22;44792;52.760;6.726;2023-05-07T07:43:40;12.90;99.90
59007;DHT22;44792;52.760;6.726;2023-05-07T07:46:06;12.90;99.90
59007;DHT22;44792;52.760;6.726;2023-05-07T07:48:32;13.00;99.90
59007;DHT22;44792;52.760;6.726;2023-05-07T07:50:57;13.00;99.90
59007;DHT22;44792;52.760;6.726;2023-05-07T07:53:23;13.00;99.90
59007;DHT22;44792;52.760;6.726;2023-05-07T07:55:48;13.10;99.90
59007;DHT22;44792;52.760;6.726;2023-05-07T07:58:14;13.10;99.90
59007;DHT22;44792;52.760;6.726;2023-05-07T08:00:40;13.20;99.90
59007;DHT22;44792;52.760;6.726;2023-05-07T08:03:06;13.10;99.90
59007;DHT22;44792;52.760;6.726;2023-05-07T08:05:34;13.10;99.90
59007;DHT22;44792;52.760;6.726;2023-05-07T08:07:59;13.20;99.90
59007;DHT22;44792;52.760;6.726;2023-05-07T08:10:25;13.30;99.90
59007;DHT22;44792;52.760;6.726;2023-05-07T08:12:51;13.50;99.90
59007;DHT22;44792;52.760;6.726;2023-05-07T08:15:17;13.50;99.90
59007;DHT22;44792;52.760;6.726;2023-05-07T08:17:43;13.60;99.90
59007;DHT22;44792;52.760;6.726;2023-05-07T08:20:09;13.60;99.90
59007;DHT22;44792;52.760;6.726;2023-05-07T08:22:35;13.80;99.90
59007;DHT22;44792;52.760;6.726;2023-05-07T08:25:02;14.00;99.90
59007;DHT22;44792;52.760;6.726;2023-05-07T08:27:28;14.00;99.90
59007;DHT22;44792;52.760;6.726;2023-05-07T08:29:53;14.00;99.90
59007;DHT22;44792;52.760;6.726;2023-05-07T08:32:20;14.00;99.90
59007;DHT22;44792;52.760;6.726;2023-05-07T08:34:47;14.20;99.90
59007;DHT22;44792;52.760;6.726;2023-05-07T08:37:13;14.20;99.90
59007;DHT22;44792;52.760;6.726;2023-05-07T08:39:38;14.20;99.90
59007;DHT22;44792;52.760;6.726;2023-05-07T08:42:04;14.10;99.90
59007;DHT22;44792;52.760;6.726;2023-05-07T08:44:33;14.00;99.90
59007;DHT22;44792;52.760;6.726;2023-05-07T08:47:01;14.10;99.90
59007;DHT22;44792;52.760;6.726;2023-05-07T08:49:27;14.10;99.90
59007;DHT22;44792;52.760;6.726;2023-05-07T08:51:53;14.20;99.90
59007;DHT22;44792;52.760;6.726;2023-05-07T08:54:21;14.20;99.90
59007;DHT22;44792;52.760;6.726;2023-05-07T08:56:47;14.40;99.90
59007;DHT22;44792;52.760;6.726;2023-05-07T08:59:13;14.50;99.90
59007;DHT22;44792;52.760;6.726;2023-05-07T09:01:38;14.70;99.90
59007;DHT22;44792;52.760;6.726;2023-05-07T09:04:04;14.70;99.90
59007;DHT22;44792;52.760;6.726;2023-05-07T10:13:52;16.10;99.90
59007;DHT22;44792;52.760;6.726;2023-05-07T10:16:18;16.30;99.90
59007;DHT22;44792;52.760;6.726;2023-05-07T10:18:45;16.40;99.90
59007;DHT22;44792;52.760;6.726;2023-05-07T10:21:16;16.40;99.90
59007;DHT22;44792;52.760;6.726;2023-05-07T10:23:57;16.30;99.90
59007;DHT22;44792;52.760;6.726;2023-05-07T10:26:24;16.40;99.90
59007;DHT22;44792;52.760;6.726;2023-05-07T10:28:56;16.40;99.90
59007;DHT22;44792;52.760;6.726;2023-05-07T10:34:12;16.80;99.90
59007;DHT22;44792;52.760;6.726;2023-05-07T10:36:38;17.00;99.90
59007;DHT22;44792;52.760;6.726;2023-05-07T10:39:05;17.00;99.90
59007;DHT22;44792;52.760;6.726;2023-05-07T10:41:31;16.90;99.90
59007;DHT22;44792;52.760;6.726;2023-05-07T10:43:57;17.10;99.90
59007;DHT22;44792;52.760;6.726;2023-05-07T10:46:26;17.30;99.90
59007;DHT22;44792;52.760;6.726;2023-05-07T10:51:29;17.30;99.90
59007;DHT22;44792;52.760;6.726;2023-05-07T10:56:38;17.50;99.90
59007;DHT22;44792;52.760;6.726;2023-05-07T11:01:57;17.60;99.90
59007;DHT22;44792;52.760;6.726;2023-05-07T11:04:24;17.60;99.90
59007;DHT22;44792;52.760;6.726;2023-05-07T11:15:02;17.50;99.90
59007;DHT22;44792;52.760;6.726;2023-05-07T11:17:28;17.70;99.90
59007;DHT22;44792;52.760;6.726;2023-05-07T11:19:57;17.80;99.90
59007;DHT22;44792;52.760;6.726;2023-05-07T11:25:02;17.70;99.90
59007;DHT22;44792;52.760;6.726;2023-05-07T11:27:28;17.80;99.90
59007;DHT22;44792;52.760;6.726;2023-05-07T11:29:55;17.80;99.90
59007;DHT22;44792;52.760;6.726;2023-05-07T11:32:28;17.80;99.90
59007;DHT22;44792;52.760;6.726;2023-05-07T11:34:58;18.00;99.90
59007;DHT22;44792;52.760;6.726;2023-05-07T11:37:25;17.90;99.90
59007;DHT22;44792;52.760;6.726;2023-05-07T11:40:05;17.80;99.90
59007;DHT22;44792;52.760;6.726;2023-05-07T11:42:36;18.00;99.90
59007;DHT22;44792;52.760;6.726;2023-05-07T11:45:03;17.90;99.90
59007;DHT22;44792;52.760;6.726;2023-05-07T11:47:30;17.80;99.90
59007;DHT22;44792;52.760;6.726;2023-05-07T11:49:56;17.80;99.90
59007;DHT22;44792;52.760;6.726;2023-05-07T11:52:23;17.80;99.90
59007;DHT22;44792;52.760;6.726;2023-05-07T11:54:51;17.70;99.90
59007;DHT22;44792;52.760;6.726;2023-05-07T11:57:17;17.80;99.90
59007;DHT22;44792;52.760;6.726;2023-05-07T11:59:42;17.80;99.90
59007;DHT22;44792;52.760;6.726;2023-05-07T12:02:16;17.80;99.90
59007;DHT22;44792;52.760;6.726;2023-05-07T12:04:42;17.80;99.90
59007;DHT22;44792;52.760;6.726;2023-05-07T12:07:12;17.80;99.90
59007;DHT22;44792;52.760;6.726;2023-05-07T12:09:39;17.90;99.90
59007;DHT22;44792;52.760;6.726;2023-05-07T12:12:05;17.90;99.90
59007;DHT22;44792;52.760;6.726;2023-05-07T12:14:31;17.90;99.90
59007;DHT22;44792;52.760;6.726;2023-05-07T12:17:00;18.10;99.90
59007;DHT22;44792;52.760;6.726;2023-05-07T12:19:29;18.20;99.90
59007;DHT22;44792;52.760;6.726;2023-05-07T12:21:56;18.10;99.90
59007;DHT22;44792;52.760;6.726;2023-05-07T12:24:22;18.10;99.90
59007;DHT22;44792;52.760;6.726;2023-05-07T12:26:48;17.90;99.90
59007;DHT22;44792;52.760;6.726;2023-05-07T12:29:14;17.80;99.90
59007;DHT22;44792;52.760;6.726;2023-05-07T12:31:43;17.80;99.90
59007;DHT22;44792;52.760;6.726;2023-05-07T12:34:11;17.80;99.90
59007;DHT22;44792;52.760;6.726;2023-05-07T12:36:40;17.70;99.90
59007;DHT22;44792;52.760;6.726;2023-05-07T12:39:09;17.70;99.90
59007;DHT22;44792;52.760;6.726;2023-05-07T12:41:54;17.70;99.90
59007;DHT22;44792;52.760;6.726;2023-05-07T12:44:30;17.80;99.90
59007;DHT22;44792;52.760;6.726;2023-05-07T12:46:56;17.70;99.90
59007;DHT22;44792;52.760;6.726;2023-05-07T12:49:25;17.70;99.90
59007;DHT22;44792;52.760;6.726;2023-05-07T12:51:51;17.60;99.90
59007;DHT22;44792;52.760;6.726;2023-05-07T12:54:33;17.70;99.90
59007;DHT22;44792;52.760;6.726;2023-05-07T12:57:03;17.70;99.90
59007;DHT22;44792;52.760;6.726;2023-05-07T12:59:36;17.70;99.90
59007;DHT22;44792;52.760;6.726;2023-05-07T13:02:02;17.80;99.90
59007;DHT22;44792;52.760;6.726;2023-05-07T13:04:28;17.80;99.90
59007;DHT22;44792;52.760;6.726;2023-05-07T13:06:54;17.80;99.90
59007;DHT22;44792;52.760;6.726;2023-05-07T13:09:19;17.80;99.90
59007;DHT22;44792;52.760;6.726;2023-05-07T13:11:45;17.80;99.90
59007;DHT22;44792;52.760;6.726;2023-05-07T13:14:11;17.70;99.90
59007;DHT22;44792;52.760;6.726;2023-05-07T13:16:37;17.70;99.90
59007;DHT22;44792;52.760;6.726;2023-05-07T13:19:03;17.70;99.90
59007;DHT22;44792;52.760;6.726;2023-05-07T13:21:29;17.80;99.90
59007;DHT22;44792;52.760;6.726;2023-05-07T13:23:57;17.90;99.90
59007;DHT22;44792;52.760;6.726;2023-05-07T13:26:24;17.90;99.90
59007;DHT22;44792;52.760;6.726;2023-05-07T13:28:50;18.10;99.90
59007;DHT22;44792;52.760;6.726;2023-05-07T13:31:17;18.20;99.90
59007;DHT22;44792;52.760;6.726;2023-05-07T13:33:42;18.20;99.90
59007;DHT22;44792;52.760;6.726;2023-05-07T13:36:08;18.10;99.90
59007;DHT22;44792;52.760;6.726;2023-05-07T13:38:34;18.10;99.90
59007;DHT22;44792;52.760;6.726;2023-05-07T13:41:00;18.00;99.90
59007;DHT22;44792;52.760;6.726;2023-05-07T13:43:26;18.00;99.90
59007;DHT22;44792;52.760;6.726;2023-05-07T13:45:52;18.00;99.90
59007;DHT22;44792;52.760;6.726;2023-05-07T13:48:17;18.00;99.90
59007;DHT22;44792;52.760;6.726;2023-05-07T13:50:43;18.10;99.90
59007;DHT22;44792;52.760;6.726;2023-05-07T13:53:09;18.00;99.90
59007;DHT22;44792;52.760;6.726;2023-05-07T13:55:34;18.00;99.90
59007;DHT22;44792;52.760;6.726;2023-05-07T13:58:02;18.00;99.90
59007;DHT22;44792;52.760;6.726;2023-05-07T14:00:28;18.10;99.90
59007;DHT22;44792;52.760;6.726;2023-05-07T14:02:55;18.00;99.90
59007;DHT22;44792;52.760;6.726;2023-05-07T14:05:22;18.00;99.90
59007;DHT22;44792;52.760;6.726;2023-05-07T14:07:51;18.00;99.90
59007;DHT22;44792;52.760;6.726;2023-05-07T14:10:18;18.00;99.90
59007;DHT22;44792;52.760;6.726;2023-05-07T14:12:44;17.90;99.90
59007;DHT22;44792;52.760;6.726;2023-05-07T14:15:10;17.80;99.90
59007;DHT22;44792;52.760;6.726;2023-05-07T14:17:36;17.90;99.90
59007;DHT22;44792;52.760;6.726;2023-05-07T14:20:02;17.90;99.90
59007;DHT22;44792;52.760;6.726;2023-05-07T14:22:28;17.80;99.90
59007;DHT22;44792;52.760;6.726;2023-05-07T14:24:54;17.80;99.90
59007;DHT22;44792;52.760;6.726;2023-05-07T14:27:20;17.70;99.90
59007;DHT22;44792;52.760;6.726;2023-05-07T14:29:46;17.70;99.90
59007;DHT22;44792;52.760;6.726;2023-05-07T14:32:19;17.60;99.90
59007;DHT22;44792;52.760;6.726;2023-05-07T14:34:45;17.50;99.90
59007;DHT22;44792;52.760;6.726;2023-05-07T14:37:11;17.40;99.90
59007;DHT22;44792;52.760;6.726;2023-05-07T14:39:37;17.40;99.90
59007;DHT22;44792;52.760;6.726;2023-05-07T14:42:02;17.40;99.90
59007;DHT22;44792;52.760;6.726;2023-05-07T14:44:28;17.40;99.90
59007;DHT22;44792;52.760;6.726;2023-05-07T14:46:54;17.40;99.90
59007;DHT22;44792;52.760;6.726;2023-05-07T14:49:20;17.50;99.90
59007;DHT22;44792;52.760;6.726;2023-05-07T14:51:46;17.40;99.90
59007;DHT22;44792;52.760;6.726;2023-05-07T14:54:13;17.50;99.90
59007;DHT22;44792;52.760;6.726;2023-05-07T14:56:40;17.40;99.90
59007;DHT22;44792;52.760;6.726;2023-05-07T14:59:06;17.40;99.90
59007;DHT22;44792;52.760;6.726;2023-05-07T15:01:32;17.40;99.90
59007;DHT22;44792;52.760;6.726;2023-05-07T15:03:58;17.40;99.90
59007;DHT22;44792;52.760;6.726;2023-05-07T15:06:23;17.40;99.90
59007;DHT22;44792;52.760;6.726;2023-05-07T15:08:49;17.40;99.90
59007;DHT22;44792;52.760;6.726;2023-05-07T15:11:15;17.50;99.90
59007;DHT22;44792;52.760;6.726;2023-05-07T15:13:42;17.40;99.90
59007;DHT22;44792;52.760;6.726;2023-05-07T15:16:08;17.50;99.90
59007;DHT22;44792;52.760;6.726;2023-05-07T15:18:33;17.50;99.90
59007;DHT22;44792;52.760;6.726;2023-05-07T15:20:59;17.50;99.90
59007;DHT22;44792;52.760;6.726;2023-05-07T15:23:25;17.50;99.90
59007;DHT22;44792;52.760;6.726;2023-05-07T15:25:52;17.60;99.90
59007;DHT22;44792;52.760;6.726;2023-05-07T15:28:18;17.50;99.90
59007;DHT22;44792;52.760;6.726;2023-05-07T15:30:43;17.50;99.90
59007;DHT22;44792;52.760;6.726;2023-05-07T15:33:09;17.50;99.90
59007;DHT22;44792;52.760;6.726;2023-05-07T15:35:35;17.50;99.90
59007;DHT22;44792;52.760;6.726;2023-05-07T15:38:00;17.50;99.90
59007;DHT22;44792;52.760;6.726;2023-05-07T15:40:28;17.50;99.90
59007;DHT22;44792;52.760;6.726;2023-05-07T15:42:57;17.50;99.90
59007;DHT22;44792;52.760;6.726;2023-05-07T15:45:23;17.50;99.90
59007;DHT22;44792;52.760;6.726;2023-05-07T15:47:49;17.50;99.90
59007;DHT22;44792;52.760;6.726;2023-05-07T15:50:15;17.50;99.90
59007;DHT22;44792;52.760;6.726;2023-05-07T15:52:40;17.60;99.90
59007;DHT22;44792;52.760;6.726;2023-05-07T15:55:07;17.50;99.90
59007;DHT22;44792;52.760;6.726;2023-05-07T15:57:34;17.50;99.90
59007;DHT22;44792;52.760;6.726;2023-05-07T16:00:00;17.40;99.90
59007;DHT22;44792;52.760;6.726;2023-05-07T16:02:26;17.50;99.90
59007;DHT22;44792;52.760;6.726;2023-05-07T16:04:51;17.50;99.90
59007;DHT22;44792;52.760;6.726;2023-05-07T16:07:17;17.50;99.90
59007;DHT22;44792;52.760;6.726;2023-05-07T16:09:44;17.50;99.90
59007;DHT22;44792;52.760;6.726;2023-05-07T16:12:10;17.60;99.90
59007;DHT22;44792;52.760;6.726;2023-05-07T16:14:36;17.60;99.90
59007;DHT22;44792;52.760;6.726;2023-05-07T16:17:02;17.60;99.90
59007;DHT22;44792;52.760;6.726;2023-05-07T16:19:28;17.60;99.90
59007;DHT22;44792;52.760;6.726;2023-05-07T16:21:54;17.60;99.90
59007;DHT22;44792;52.760;6.726;2023-05-07T16:24:19;17.60;99.90
59007;DHT22;44792;52.760;6.726;2023-05-07T16:26:45;17.60;99.90
59007;DHT22;44792;52.760;6.726;2023-05-07T16:29:11;17.60;99.90
59007;DHT22;44792;52.760;6.726;2023-05-07T16:31:37;17.60;99.90
59007;DHT22;44792;52.760;6.726;2023-05-07T16:34:03;17.50;99.90
59007;DHT22;44792;52.760;6.726;2023-05-07T16:36:29;17.50;99.90
59007;DHT22;44792;52.760;6.726;2023-05-07T16:38:55;17.50;99.90
59007;DHT22;44792;52.760;6.726;2023-05-07T16:41:21;17.50;99.90
59007;DHT22;44792;52.760;6.726;2023-05-07T16:43:47;17.50;99.90
59007;DHT22;44792;52.760;6.726;2023-05-07T16:46:13;17.60;99.90
59007;DHT22;44792;52.760;6.726;2023-05-07T16:48:38;17.50;99.90
59007;DHT22;44792;52.760;6.726;2023-05-07T16:51:04;17.60;99.90
59007;DHT22;44792;52.760;6.726;2023-05-07T16:53:31;17.50;99.90